Aeroporto :
LOGIN :

Iscrizione | Disclaimer

   EN    FR    IT 

 










Sommario :    VFR   VFR Marginale   IFR   IFR Intensivo   IFR Molto Intensivo
Visibilità : 
Base nubi : 
>= 8 km
>= 3000ft
5 / 8 km
1000 / 3000 ft
1500m / 5 km
500 / 1000 ft
800 / 1500m
200 / 500 ft
< 800m
< 200 ft
Simboli :   Temporali  Nebbia  Neve Forte  Precipitazioni Forti  Vento > 20 kt
SIGMETs :   Varie  Temporali  Ghiacco  Turbolenza  Onda orograficha  Ceneri Vulcaniche






- Altitudine del aeroporto : 141 ft
- Codice IATA : SKS


EKSP - Srydstrup Vojens

ULTIMO METAR :
  • 031320Z 23013KT 200V260 9999 FEW040 SCT070 BKN110 17/11 Q1012

METARs OBSOLETI :
  • 031250Z 24013KT 9999 FEW040 SCT070 BKN110 17/12 Q1012
  • 031220Z 24013KT 9999 FEW009 SCT040 BKN070 17/13 Q1012
  • 031150Z 23007KT 190V250 9999 FEW009 SCT040 BKN070 17/14 Q1012
  • 031120Z 22010KT 9999 FEW009 SCT040 BKN070 16/13 Q1013 NOSIG
  • 031050Z 21009KT 9999 FEW009 SCT040 BKN070 15/13 Q1013 NOSIG

TAF TAF EKSP
Valido dal 03 a 12 ore il 04 a 12 ore UTC


031103Z 0312/0412 22012KT 9999 BKN030
TEMPO 0312/0315 6000 -SHRA SCT020TCU
BECMG 0315/0317 6000 -RA BKN012
TEMPO 0317/0412 3500 RA BKN008



MetMap, La meteo Aeronautica in un colpo d'occhio ! - Copyright ORBIFLY Dicembre 2007 - Disclaimer

ORBIFLY MET'MAP TEAM :

Programmazione e sviluppo : Alexandra Zaïnal
Concezione : Baudouin d'Aumeries
Aiuto per la programmazione : Marc-Olivier Méhu
Supporto tecnico e logistico : Manuel Goepfert
Aiuto per la traduzione : Arnaldo La Scala

Contatto : metmap@orbifly.com




FONTI E CREDITI :

   NOAA